-1°C
Woerden, The Nederlands
Taal:  Nederlands
Updated25/02/2018 01:00 
 
Station Historical Data
Daily Summary for February 14, 2018 Units:  English    Metric   Both
Next Day »
Daily Weekly Monthly Yearly Custom
  High: Low: Average:
Temperature: 42.3 °F 27.7 °F 34.9 °F
Dew Point: 31.3 °F 23.5 °F 27.7 °F
Humidity: 86% 63% 75%
Wind Speed: 26.5mph 4.6mph 13.9mph
Wind Gust: 26.5mph - -
Wind- - SE
Pressure: 29.9 in 29.8 in -
Precipitation: 0 in    
Historical Graphs
 
 
Tabular Data for February 14, 2018
Time Temperature Dew Point Pressure Wind Wind Speed Wind Gust Humidity Rainfall Rate (Hourly) solar Conditions
00:04 30.7 °F 26.1 °F 29.8 in SE 5 mph 5 mph 82% 0 in 0.0 W/m2 CLR
00:09 30.7 °F 25.9 °F 29.8 in ESE 9.2 mph 9.2 mph 82% 0 in 0.0 W/m2 CLR
00:14 30.7 °F 26.1 °F 29.8 in SE 8.1 mph 8.1 mph 83% 0 in 0.0 W/m2 CLR
00:19 30.7 °F 26.1 °F 29.8 in ESE 5.8 mph 5.8 mph 83% 0 in 0.0 W/m2 CLR
00:24 30.7 °F 26.1 °F 29.8 in ESE 6.9 mph 6.9 mph 83% 0 in 0.0 W/m2 CLR
00:29 30.7 °F 26.1 °F 29.8 in SE 8.1 mph 8.1 mph 83% 0 in 0.0 W/m2 CLR
00:34 30.7 °F 26.1 °F 29.8 in SE 6.9 mph 6.9 mph 83% 0 in 0.0 W/m2 CLR
00:39 30.7 °F 26.1 °F 29.8 in SE 9.2 mph 9.2 mph 83% 0 in 0.0 W/m2 CLR
00:44 30.7 °F 26.1 °F 29.8 in SE 10.4 mph 10.4 mph 83% 0 in 0.0 W/m2 CLR
00:49 30.7 °F 26.1 °F 29.8 in SE 9.2 mph 9.2 mph 83% 0 in 0.0 W/m2 CLR
00:54 30.6 °F 26.1 °F 29.8 in SE 6.9 mph 6.9 mph 83% 0 in 0.0 W/m2 CLR
00:59 30.6 °F 26.1 °F 29.8 in ESE 9.2 mph 9.2 mph 83% 0 in 0.0 W/m2 CLR
01:04 30.4 °F 25.9 °F 29.8 in SE 7 mph 7 mph 83% 0 in 0.0 W/m2 CLR
01:09 30 °F 25.9 °F 29.8 in ESE 8.1 mph 8.1 mph 84% 0 in 0.0 W/m2 CLR
01:14 30 °F 25.9 °F 29.8 in ESE 6.9 mph 6.9 mph 84% 0 in 0.0 W/m2 CLR
01:19 29.8 °F 25.7 °F 29.8 in SE 7 mph 7 mph 84% 0 in 0.0 W/m2 CLR
01:24 29.8 °F 25.7 °F 29.8 in SE 8.1 mph 8.1 mph 84% 0 in 0.0 W/m2 CLR
01:29 29.8 °F 25.7 °F 29.8 in ESE 8.1 mph 8.1 mph 84% 0 in 0.0 W/m2 CLR
01:34 29.8 °F 25.7 °F 29.8 in SE 8.1 mph 8.1 mph 84% 0 in 0.0 W/m2 CLR
01:39 29.8 °F 25.7 °F 29.8 in SE 8.1 mph 8.1 mph 84% 0 in 0.0 W/m2 CLR
01:44 29.8 °F 25.5 °F 29.8 in SE 8.1 mph 8.1 mph 84% 0 in 0.0 W/m2 CLR
01:49 29.8 °F 25.5 °F 29.8 in SE 6.9 mph 6.9 mph 84% 0 in 0.0 W/m2 CLR
01:54 29.7 °F 25.5 °F 29.8 in ESE 6.9 mph 6.9 mph 84% 0 in 0.0 W/m2 CLR
01:59 29.7 °F 25.3 °F 29.8 in ESE 6.9 mph 6.9 mph 84% 0 in 0.0 W/m2 CLR
02:04 29.5 °F 25.3 °F 29.8 in ESE 6 mph 6 mph 85% 0 in 0.0 W/m2 CLR
02:09 29.1 °F 25.3 °F 29.8 in SE 6.9 mph 6.9 mph 85% 0 in 0.0 W/m2 CLR
02:14 29.1 °F 25.3 °F 29.8 in ESE 6.9 mph 6.9 mph 85% 0 in 0.0 W/m2 CLR
02:19 29.1 °F 25.3 °F 29.8 in SE 5.8 mph 5.8 mph 85% 0 in 0.0 W/m2 CLR
02:25 29.1 °F 25.3 °F 29.8 in ESE 6.9 mph 6.9 mph 85% 0 in 0.0 W/m2 CLR
02:29 29.3 °F 25.3 °F 29.8 in SE 8.1 mph 8.1 mph 85% 0 in 0.0 W/m2 CLR
02:34 29.3 °F 25.3 °F 29.8 in ESE 6.9 mph 6.9 mph 85% 0 in 0.0 W/m2 CLR
02:40 29.5 °F 25.3 °F 29.8 in SE 8.1 mph 8.1 mph 85% 0 in 0.0 W/m2 CLR
02:44 29.5 °F 25.2 °F 29.8 in ESE 8.1 mph 8.1 mph 84% 0 in 0.0 W/m2 CLR
02:49 29.3 °F 25.2 °F 29.8 in ESE 6.9 mph 6.9 mph 84% 0 in 0.0 W/m2 CLR
02:55 29.1 °F 25 °F 29.8 in SE 8.1 mph 8.1 mph 84% 0 in 0.0 W/m2 CLR
03:00 29.1 °F 25 °F 29.8 in SE 5 mph 9 mph 84% 0 in 0.0 W/m2 CLR
03:05 29.1 °F 25 °F 29.8 in ESE 6.9 mph 6.9 mph 84% 0 in 0.0 W/m2 CLR
03:10 28.9 °F 24.8 °F 29.8 in SE 4.6 mph 4.6 mph 84% 0 in 0.0 W/m2 CLR
03:15 28.8 °F 24.6 °F 29.9 in SE 6.9 mph 6.9 mph 84% 0 in 0.0 W/m2 CLR
03:20 28.8 °F 24.4 °F 29.9 in ESE 6 mph 6 mph 84% 0 in 0.0 W/m2 CLR
03:25 28.6 °F 24.4 °F 29.9 in SE 6.9 mph 6.9 mph 84% 0 in 0.0 W/m2 CLR
03:30 28.6 °F 24.6 °F 29.9 in SE 4.6 mph 4.6 mph 85% 0 in 0.0 W/m2 CLR
03:35 28.4 °F 24.4 °F 29.9 in ESE 6.9 mph 6.9 mph 85% 0 in 0.0 W/m2 CLR
03:40 28.4 °F 24.4 °F 29.9 in SE 8.1 mph 8.1 mph 85% 0 in 0.0 W/m2 CLR
03:45 28.4 °F 24.4 °F 29.9 in SE 6.9 mph 6.9 mph 85% 0 in 0.0 W/m2 CLR
03:50 28.4 °F 24.4 °F 29.9 in ESE 6.9 mph 6.9 mph 85% 0 in 0.0 W/m2 CLR
03:55 28.2 °F 24.4 °F 29.9 in ESE 6.9 mph 6.9 mph 85% 0 in 0.0 W/m2 CLR
04:00 28.2 °F 24.4 °F 29.9 in ESE 8.1 mph 8.1 mph 85% 0 in 0.0 W/m2 CLR
04:05 28.2 °F 24.3 °F 29.9 in SE 6.9 mph 6.9 mph 85% 0 in 0.0 W/m2 CLR
04:10 28 °F 24.3 °F 29.9 in SE 8.1 mph 8.1 mph 85% 0 in 0.0 W/m2 CLR
04:15 28 °F 24.1 °F 29.9 in ESE 6.9 mph 6.9 mph 85% 0 in 0.0 W/m2 CLR
04:20 28 °F 24.1 °F 29.9 in ESE 4.6 mph 4.6 mph 85% 0 in 0.0 W/m2 CLR
04:25 27.9 °F 24.1 °F 29.9 in SE 6.9 mph 6.9 mph 85% 0 in 0.0 W/m2 CLR
04:30 27.9 °F 24.1 °F 29.9 in ESE 8.1 mph 8.1 mph 85% 0 in 0.0 W/m2 CLR
04:35 27.9 °F 23.9 °F 29.9 in ESE 8.1 mph 8.1 mph 85% 0 in 0.0 W/m2 CLR
04:40 27.9 °F 23.9 °F 29.9 in ESE 8.1 mph 8.1 mph 85% 0 in 0.0 W/m2 CLR
04:45 27.7 °F 23.7 °F 29.9 in SE 8.1 mph 8.1 mph 85% 0 in 0.0 W/m2 CLR
04:50 27.7 °F 23.7 °F 29.9 in ESE 6.9 mph 6.9 mph 85% 0 in 0.0 W/m2 CLR
04:55 27.7 °F 24.1 °F 29.9 in SE 8.1 mph 8.1 mph 86% 0 in 0.0 W/m2 CLR
05:00 27.7 °F 24.1 °F 29.9 in SE 8.1 mph 8.1 mph 86% 0 in 0.0 W/m2 CLR
05:05 27.7 °F 24.1 °F 29.9 in SE 6.9 mph 6.9 mph 86% 0 in 0.0 W/m2 CLR
05:10 27.7 °F 23.7 °F 29.9 in SSE 8.1 mph 8.1 mph 85% 0 in 0.0 W/m2 CLR
05:15 27.7 °F 24.1 °F 29.9 in SE 4.6 mph 4.6 mph 86% 0 in 0.0 W/m2 CLR
05:20 27.7 °F 23.7 °F 29.9 in SE 6.9 mph 6.9 mph 85% 0 in 0.0 W/m2 CLR
05:25 27.9 °F 23.9 °F 29.9 in SE 5 mph 5 mph 85% 0 in 0.0 W/m2 CLR
05:30 27.9 °F 23.9 °F 29.9 in SE 9.2 mph 9.2 mph 85% 0 in 0.0 W/m2 CLR
05:35 27.9 °F 24.1 °F 29.9 in ESE 8.1 mph 8.1 mph 85% 0 in 0.0 W/m2 CLR
05:40 27.9 °F 24.1 °F 29.9 in SE 9.2 mph 9.2 mph 85% 0 in 0.0 W/m2 CLR
05:45 27.9 °F 24.1 °F 29.9 in SE 10.4 mph 10.4 mph 85% 0 in 0.0 W/m2 CLR
05:50 27.9 °F 23.7 °F 29.9 in ESE 8.1 mph 8.1 mph 84% 0 in 0.0 W/m2 CLR
05:55 27.9 °F 23.7 °F 29.9 in SE 8 mph 8 mph 84% 0 in 0.0 W/m2 CLR
06:00 28 °F 23.7 °F 29.9 in ESE 9 mph 9 mph 84% 0 in 0.0 W/m2 CLR
06:05 28 °F 23.7 °F 29.9 in ESE 10.4 mph 10.4 mph 84% 0 in 0.0 W/m2 CLR
06:10 28 °F 23.7 °F 29.9 in ESE 9.2 mph 9.2 mph 84% 0 in 0.0 W/m2 CLR
06:15 28 °F 23.7 °F 29.9 in SE 8.1 mph 8.1 mph 84% 0 in 0.0 W/m2 CLR
06:20 28 °F 23.7 °F 29.9 in SE 8.1 mph 8.1 mph 84% 0 in 0.0 W/m2 CLR
06:25 28 °F 23.7 °F 29.9 in ESE 7 mph 7 mph 84% 0 in 0.0 W/m2 CLR
06:30 28 °F 23.7 °F 29.9 in SE 9.2 mph 9.2 mph 84% 0 in 0.0 W/m2 CLR
06:35 28 °F 23.7 °F 29.9 in SE 7 mph 7 mph 84% 0 in 0.0 W/m2 CLR
06:40 28 °F 23.7 °F 29.9 in SE 8.1 mph 8.1 mph 84% 0 in 0.0 W/m2 CLR
06:45 27.9 °F 23.7 °F 29.9 in ESE 8 mph 8 mph 84% 0 in 0.0 W/m2 CLR
06:50 27.9 °F 23.7 °F 29.9 in ESE 8.1 mph 8.1 mph 84% 0 in 0.0 W/m2 CLR
06:55 27.9 °F 23.7 °F 29.9 in SE 10.4 mph 10.4 mph 84% 0 in 0.0 W/m2 CLR
07:00 27.9 °F 23.7 °F 29.9 in SE 9.2 mph 9.2 mph 84% 0 in 0.0 W/m2 CLR
07:05 27.9 °F 23.7 °F 29.9 in SE 8.1 mph 8.1 mph 84% 0 in 0.0 W/m2 CLR
07:10 27.9 °F 23.5 °F 29.9 in ESE 8.1 mph 8.1 mph 84% 0 in 0.0 W/m2 CLR
07:15 27.9 °F 23.5 °F 29.9 in SE 10.4 mph 10.4 mph 84% 0 in 0.0 W/m2 CLR
07:20 27.7 °F 23.7 °F 29.9 in ESE 9.2 mph 9.2 mph 85% 0 in 0.0 W/m2 CLR
07:25 27.7 °F 23.7 °F 29.9 in ESE 8 mph 8 mph 85% 0 in 0.0 W/m2 CLR
07:30 27.7 °F 23.7 °F 29.9 in SE 9.2 mph 9.2 mph 85% 0 in 0.0 W/m2 CLR
07:35 27.7 °F 23.7 °F 29.9 in SE 6.9 mph 6.9 mph 85% 0 in 0.0 W/m2 CLR
07:40 27.7 °F 23.7 °F 29.9 in SE 5.8 mph 5.8 mph 85% 0 in 0.0 W/m2 CLR
07:45 27.7 °F 23.7 °F 29.9 in SE 5.8 mph 5.8 mph 85% 0 in 0.0 W/m2 CLR
07:49 27.7 °F 23.7 °F 29.9 in ESE 6.9 mph 6.9 mph 85% 0 in 0.0 W/m2 CLR
07:54 27.7 °F 23.7 °F 29.9 in ESE 6.9 mph 6.9 mph 85% 0 in 0.0 W/m2 CLR
08:00 27.7 °F 23.7 °F 29.9 in SE 4.6 mph 4.6 mph 85% 0 in 5.0 W/m2 OVC
08:05 27.7 °F 23.5 °F 29.9 in SE 6.9 mph 6.9 mph 84% 0 in 7.0 W/m2 OVC
08:09 27.7 °F 23.7 °F 29.9 in SE 8 mph 8 mph 85% 0 in 9.0 W/m2 OVC
08:14 27.9 °F 23.5 °F 29.9 in SE 11.5 mph 11.5 mph 84% 0 in 12.0 W/m2 OVC
08:20 27.9 °F 23.7 °F 29.9 in SE 10.4 mph 10.4 mph 84% 0 in 14.0 W/m2 OVC
08:24 28 °F 23.9 °F 29.9 in SSE 9.2 mph 9.2 mph 84% 0 in 16.0 W/m2 OVC
08:29 28 °F 23.9 °F 29.9 in SSE 6.9 mph 6.9 mph 84% 0 in 18.0 W/m2 OVC
08:34 28.2 °F 24.1 °F 29.9 in SE 8.1 mph 8.1 mph 84% 0 in 19.0 W/m2 OVC
08:39 28.4 °F 24.3 °F 29.9 in SSE 9.2 mph 9.2 mph 84% 0 in 23.0 W/m2 OVC
08:45 28.6 °F 24.1 °F 29.9 in SE 9 mph 9 mph 83% 0 in 32.0 W/m2 OVC
08:50 28.8 °F 24.3 °F 29.9 in SE 9.2 mph 9.2 mph 83% 0 in 42.0 W/m2 OVC
08:55 28.9 °F 24.4 °F 29.9 in SE 9.2 mph 9.2 mph 83% 0 in 54.0 W/m2 OVC
08:59 29.3 °F 24.4 °F 29.9 in SSE 8.1 mph 8.1 mph 82% 0 in 67.0 W/m2 OVC
09:04 29.7 °F 24.8 °F 29.9 in SE 10.4 mph 10.4 mph 82% 0 in 79.0 W/m2 OVC
09:09 29.8 °F 25 °F 29.9 in SE 9.2 mph 9.2 mph 82% 0 in 91.0 W/m2 BKN
09:15 30 °F 25 °F 29.9 in SE 10.4 mph 10.4 mph 81% 0 in 102.0 W/m2 FEW
09:19 30.4 °F 25.3 °F 29.9 in SSE 11.5 mph 11.5 mph 81% 0 in 113.0 W/m2 CLR
09:24 30.7 °F 25.3 °F 29.9 in SE 11.5 mph 11.5 mph 80% 0 in 111.0 W/m2 CLR
09:29 30.9 °F 25.2 °F 29.9 in ESE 12.7 mph 12.7 mph 79% 0 in 114.0 W/m2 CLR
09:35 31.3 °F 25.3 °F 29.9 in SE 12.7 mph 12.7 mph 79% 0 in 144.0 W/m2 CLR
09:40 31.5 °F 25.3 °F 29.9 in SE 11.5 mph 11.5 mph 78% 0 in 163.0 W/m2 CLR
09:45 31.8 °F 25.3 °F 29.9 in SE 15 mph 15 mph 77% 0 in 181.0 W/m2 CLR
09:50 32.2 °F 25.3 °F 29.9 in SE 13 mph 13 mph 76% 0 in 195.0 W/m2 CLR
09:55 32.4 °F 25.3 °F 29.9 in SE 16 mph 16 mph 75% 0 in 211.0 W/m2 CLR
10:00 32.5 °F 25.5 °F 29.9 in SE 10 mph 20 mph 75% 0 in 223.0 W/m2 CLR
10:05 32.7 °F 25.3 °F 29.9 in ESE 16.1 mph 16.1 mph 74% 0 in 234.0 W/m2 CLR
10:10 33.1 °F 25.5 °F 29.9 in SE 16.1 mph 16.1 mph 74% 0 in 250.0 W/m2 CLR
10:15 33.3 °F 25.9 °F 29.9 in SE 15 mph 15 mph 74% 0 in 221.0 W/m2 CLR
10:20 33.4 °F 26.1 °F 29.9 in SSE 11.5 mph 11.5 mph 74% 0 in 225.0 W/m2 CLR
10:25 33.6 °F 26.2 °F 29.9 in SE 13.8 mph 13.8 mph 74% 0 in 269.0 W/m2 CLR
10:30 34 °F 26.6 °F 29.9 in SE 12.7 mph 12.7 mph 74% 0 in 283.0 W/m2 CLR
10:35 34.2 °F 26.4 °F 29.9 in SSE 16.1 mph 16.1 mph 73% 0 in 292.0 W/m2 CLR
10:40 34.3 °F 26.2 °F 29.9 in SE 16.1 mph 16.1 mph 72% 0 in 301.0 W/m2 CLR
10:45 34.5 °F 26.2 °F 29.9 in SE 17.3 mph 17.3 mph 71% 0 in 309.0 W/m2 CLR
10:50 34.9 °F 26.4 °F 29.9 in SSE 15 mph 15 mph 71% 0 in 316.0 W/m2 CLR
10:55 35.2 °F 27.1 °F 29.9 in SE 12.7 mph 12.7 mph 72% 0 in 325.0 W/m2 CLR
11:00 35.2 °F 26.4 °F 29.9 in SE 18.4 mph 18.4 mph 70% 0 in 334.0 W/m2 CLR
11:05 35.2 °F 26.8 °F 29.9 in SE 13.8 mph 13.8 mph 71% 0 in 341.0 W/m2 CLR
11:10 35.4 °F 27 °F 29.9 in SE 15 mph 15 mph 71% 0 in 346.0 W/m2 CLR
11:15 35.6 °F 27.1 °F 29.9 in SE 18.4 mph 18.4 mph 71% 0 in 355.0 W/m2 CLR
11:20 36 °F 27.1 °F 29.9 in SE 13.8 mph 13.8 mph 70% 0 in 362.0 W/m2 CLR
11:25 36 °F 27.1 °F 29.9 in ESE 15 mph 15 mph 70% 0 in 369.0 W/m2 CLR
11:30 36.1 °F 27.7 °F 29.9 in SE 16.1 mph 16.1 mph 71% 0 in 374.0 W/m2 CLR
11:35 36.5 °F 27.7 °F 29.9 in SSE 12.7 mph 12.7 mph 70% 0 in 373.0 W/m2 CLR
11:40 36.9 °F 27.9 °F 29.9 in SE 18.4 mph 18.4 mph 70% 0 in 392.0 W/m2 CLR
11:45 37 °F 28 °F 29.9 in SE 15 mph 15 mph 70% 0 in 394.0 W/m2 CLR
11:50 37.4 °F 28.2 °F 29.9 in SSE 13.8 mph 13.8 mph 69% 0 in 397.0 W/m2 CLR
11:55 37.8 °F 28.8 °F 29.9 in SE 14 mph 14 mph 70% 0 in 392.0 W/m2 CLR
12:00 37.8 °F 28.6 °F 29.9 in SSE 20 mph 20 mph 69% 0 in 403.0 W/m2 CLR
12:05 37.9 °F 28.2 °F 29.9 in SE 16.1 mph 16.1 mph 68% 0 in 408.0 W/m2 CLR
12:10 38.1 °F 28.6 °F 29.9 in SE 18.4 mph 18.4 mph 68% 0 in 413.0 W/m2 CLR
12:15 38.3 °F 28.8 °F 29.9 in SE 16.1 mph 16.1 mph 68% 0 in 413.0 W/m2 CLR
12:20 38.8 °F 28.8 °F 29.9 in SSE 18.4 mph 18.4 mph 67% 0 in 415.0 W/m2 CLR
12:25 38.8 °F 28.8 °F 29.9 in SE 19.6 mph 19.6 mph 67% 0 in 420.0 W/m2 CLR
12:30 38.8 °F 28.4 °F 29.9 in SE 20.7 mph 20.7 mph 66% 0 in 420.0 W/m2 CLR
12:35 38.8 °F 28.4 °F 29.9 in SE 20.7 mph 20.7 mph 66% 0 in 418.0 W/m2 CLR
12:40 39 °F 28.6 °F 29.9 in SE 17.3 mph 17.3 mph 66% 0 in 404.0 W/m2 CLR
12:45 39.4 °F 29.3 °F 29.9 in SE 19.6 mph 19.6 mph 67% 0 in 387.0 W/m2 CLR
12:50 39.6 °F 29.8 °F 29.9 in SE 19.6 mph 19.6 mph 68% 0 in 366.0 W/m2 CLR
12:55 39.6 °F 29.5 °F 29.9 in SSE 21.9 mph 21.9 mph 67% 0 in 315.0 W/m2 CLR
13:00 39.7 °F 28.9 °F 29.9 in SE 17.3 mph 17.3 mph 65% 0 in 316.0 W/m2 CLR
13:05 39.6 °F 28.8 °F 29.9 in SSE 23 mph 23 mph 65% 0 in 279.0 W/m2 CLR
13:10 39.7 °F 29.5 °F 29.9 in SSE 23 mph 23 mph 66% 0 in 330.0 W/m2 CLR
13:15 39.7 °F 29.5 °F 29.9 in SE 21 mph 21 mph 66% 0 in 323.0 W/m2 CLR
13:20 40.3 °F 29.5 °F 29.9 in SSE 19.6 mph 19.6 mph 65% 0 in 309.0 W/m2 CLR
13:25 40.5 °F 29.7 °F 29.9 in SSE 17.3 mph 17.3 mph 65% 0 in 309.0 W/m2 CLR
13:30 40.6 °F 30 °F 29.9 in SSE 17.3 mph 17.3 mph 66% 0 in 345.0 W/m2 CLR
13:35 40.6 °F 29.8 °F 29.9 in SE 18.4 mph 18.4 mph 65% 0 in 381.0 W/m2 CLR
13:40 40.8 °F 29.8 °F 29.9 in SSE 17.3 mph 17.3 mph 65% 0 in 367.0 W/m2 CLR
13:45 40.8 °F 30.4 °F 29.9 in SE 18.4 mph 18.4 mph 66% 0 in 394.0 W/m2 CLR
13:50 41.2 °F 30.2 °F 29.9 in SSE 19.6 mph 19.6 mph 65% 0 in 403.0 W/m2 CLR
13:55 41.4 °F 30.6 °F 29.9 in SSE 15 mph 15 mph 65% 0 in 350.0 W/m2 CLR
14:00 41.4 °F 30.6 °F 29.9 in SE 19.6 mph 19.6 mph 65% 0 in 272.0 W/m2 CLR
14:05 41.4 °F 30.6 °F 29.9 in SE 18.4 mph 18.4 mph 65% 0 in 329.0 W/m2 CLR
14:10 41.7 °F 30.9 °F 29.9 in SSE 15 mph 15 mph 65% 0 in 418.0 W/m2 CLR
14:11 42.1 °F 30.7 °F 29.9 in SSE 17 mph 17 mph 64% 0 in 374.0 W/m2 CLR
14:16 42.3 °F 30.9 °F 29.9 in SSE 18.4 mph 18.4 mph 64% 0 in 348.0 W/m2 CLR
14:21 42.1 °F 30.4 °F 29.9 in SSE 19.6 mph 19.6 mph 63% 0 in 313.0 W/m2 CLR
14:22 42.1 °F 30.4 °F 29.9 in SSE 21 mph 21 mph 63% 0 in 316.0 W/m2 CLR
14:27 42.1 °F 30.7 °F 29.9 in SSE 19.6 mph 19.6 mph 64% 0 in 320.0 W/m2 CLR
14:32 41.9 °F 30.2 °F 29.9 in SE 20.7 mph 20.7 mph 63% 0 in 272.0 W/m2 CLR
14:37 41.7 °F 30.6 °F 29.9 in SSE 19.6 mph 19.6 mph 64% 0 in 327.0 W/m2 CLR
14:42 41.9 °F 30.6 °F 29.9 in SE 16.1 mph 16.1 mph 64% 0 in 311.0 W/m2 CLR
14:47 41.7 °F 30.6 °F 29.9 in SE 19.6 mph 19.6 mph 64% 0 in 309.0 W/m2 CLR
14:52 41.7 °F 30 °F 29.9 in SSE 26.5 mph 26.5 mph 63% 0 in 323.0 W/m2 CLR
14:57 41.9 °F 30.6 °F 29.9 in SSE 17.3 mph 17.3 mph 64% 0 in 334.0 W/m2 CLR
15:02 42.1 °F 30.4 °F 29.9 in SSE 19.6 mph 19.6 mph 63% 0 in 329.0 W/m2 CLR
15:07 42.1 °F 30.4 °F 29.9 in SSE 25.3 mph 25.3 mph 63% 0 in 301.0 W/m2 CLR
15:12 42.1 °F 30.7 °F 29.9 in SE 16.1 mph 16.1 mph 64% 0 in 197.0 W/m2 CLR
15:17 41.9 °F 30.2 °F 29.9 in SSE 21.9 mph 21.9 mph 63% 0 in 253.0 W/m2 FEW
15:22 42.1 °F 31.1 °F 29.9 in SSE 18.4 mph 18.4 mph 65% 0 in 288.0 W/m2 FEW
15:27 42.1 °F 30.7 °F 29.9 in SSE 19.6 mph 19.6 mph 64% 0 in 285.0 W/m2 CLR
15:32 42.3 °F 30.9 °F 29.9 in SE 17 mph 17 mph 64% 0 in 258.0 W/m2 CLR
15:37 42.1 °F 31.3 °F 29.9 in SE 17.3 mph 17.3 mph 65% 0 in 141.0 W/m2 FEW
15:42 41.7 °F 30.6 °F 29.9 in SSE 19.6 mph 19.6 mph 64% 0 in 102.0 W/m2 SCT
15:47 41.5 °F 30.9 °F 29.9 in SE 15 mph 15 mph 66% 0 in 97.0 W/m2 BKN
15:52 41.2 °F 30.6 °F 29.9 in SE 12.7 mph 12.7 mph 66% 0 in 100.0 W/m2 BKN
15:57 41 °F 30.9 °F 29.9 in SSE 15 mph 15 mph 67% 0 in 123.0 W/m2 BKN
16:02 41.2 °F 30.6 °F 29.9 in SSE 20.7 mph 20.7 mph 66% 0 in 146.0 W/m2 BKN
16:07 41 °F 30.6 °F 29.9 in SE 13.8 mph 13.8 mph 66% 0 in 125.0 W/m2 SCT
16:12 40.8 °F 30.4 °F 29.9 in SE 12.7 mph 12.7 mph 66% 0 in 105.0 W/m2 SCT
16:17 40.8 °F 30.4 °F 29.9 in ESE 20.7 mph 20.7 mph 66% 0 in 83.0 W/m2 BKN
16:22 40.6 °F 30.6 °F 29.9 in SE 12.7 mph 12.7 mph 67% 0 in 67.0 W/m2 BKN
16:27 40.6 °F 30.6 °F 29.9 in SSE 12.7 mph 12.7 mph 67% 0 in 76.0 W/m2 BKN
16:32 40.5 °F 30.4 °F 29.9 in ESE 18 mph 18 mph 67% 0 in 91.0 W/m2 BKN
16:37 40.6 °F 30 °F 29.9 in SE 15 mph 15 mph 66% 0 in 93.0 W/m2 BKN
16:42 40.6 °F 30.2 °F 29.9 in SE 16.1 mph 16.1 mph 66% 0 in 76.0 W/m2 BKN
16:47 40.6 °F 30.6 °F 29.9 in SSE 18.4 mph 18.4 mph 67% 0 in 56.0 W/m2 BKN
16:52 40.5 °F 30.4 °F 29.9 in SSE 15 mph 15 mph 67% 0 in 47.0 W/m2 BKN
16:57 40.3 °F 30.6 °F 29.9 in SE 17 mph 17 mph 68% 0 in 44.0 W/m2 BKN
17:02 40.3 °F 30.6 °F 29.9 in SSE 15 mph 15 mph 68% 0 in 42.0 W/m2 BKN
17:07 40.3 °F 30.6 °F 29.9 in SSE 18.4 mph 18.4 mph 68% 0 in 39.0 W/m2 BKN
17:12 40.3 °F 30.6 °F 29.9 in SE 15 mph 15 mph 68% 0 in 30.0 W/m2 BKN
17:17 39.9 °F 30.6 °F 29.9 in SE 16.1 mph 16.1 mph 69% 0 in 21.0 W/m2 BKN
17:22 39.7 °F 30.7 °F 29.9 in SSE 15 mph 15 mph 70% 0 in 16.0 W/m2 BKN
17:27 39.7 °F 30.7 °F 29.9 in SSE 11.5 mph 11.5 mph 70% 0 in 11.0 W/m2 BKN
17:32 39.4 °F 30.7 °F 29.9 in SE 12.7 mph 12.7 mph 71% 0 in 7.0 W/m2 BKN
17:37 39 °F 30.7 °F 29.9 in SSE 12.7 mph 12.7 mph 72% 0 in 5.0 W/m2 OVC
17:42 38.8 °F 30.4 °F 29.9 in SE 16 mph 16 mph 71% 0 in 0.0 W/m2 OVC
17:47 38.8 °F 30.6 °F 29.9 in SSE 17.3 mph 17.3 mph 72% 0 in 0.0 W/m2 OVC
17:52 38.8 °F 30.6 °F 29.9 in SE 15 mph 15 mph 72% 0 in 0.0 W/m2 CLR
17:57 38.8 °F 30.6 °F 29.9 in SE 13.8 mph 13.8 mph 72% 0 in 0.0 W/m2 CLR
18:02 38.8 °F 30.6 °F 29.9 in SSE 13.8 mph 13.8 mph 72% 0 in 0.0 W/m2 CLR
18:07 38.8 °F 30.6 °F 29.9 in SE 15 mph 15 mph 72% 0 in 0.0 W/m2 CLR
18:12 38.8 °F 30.6 °F 29.9 in SE 15 mph 15 mph 72% 0 in 0.0 W/m2 CLR
18:17 39 °F 30.7 °F 29.9 in SE 13.8 mph 13.8 mph 72% 0 in 0.0 W/m2 CLR
18:22 39 °F 30.7 °F 29.9 in SE 13.8 mph 13.8 mph 72% 0 in 0.0 W/m2 CLR
18:27 39 °F 30.7 °F 29.9 in SE 11.5 mph 11.5 mph 72% 0 in 0.0 W/m2 CLR
18:32 38.8 °F 30.6 °F 29.9 in SE 13 mph 13 mph 72% 0 in 0.0 W/m2 CLR
18:37 38.8 °F 30.6 °F 29.9 in SE 14 mph 14 mph 72% 0 in 0.0 W/m2 CLR
18:42 39 °F 30.7 °F 29.9 in SE 12.7 mph 12.7 mph 72% 0 in 0.0 W/m2 CLR
18:47 38.8 °F 30.6 °F 29.9 in SE 11.5 mph 11.5 mph 72% 0 in 0.0 W/m2 CLR
18:52 38.8 °F 30.6 °F 29.9 in SE 13.8 mph 13.8 mph 72% 0 in 0.0 W/m2 CLR
18:57 38.8 °F 30.9 °F 29.9 in SSE 11.5 mph 11.5 mph 73% 0 in 0.0 W/m2 CLR
19:02 38.7 °F 30.7 °F 29.9 in SE 15 mph 15 mph 73% 0 in 0.0 W/m2 CLR
19:07 38.7 °F 30.4 °F 29.9 in SSE 17.3 mph 17.3 mph 72% 0 in 0.0 W/m2 CLR
19:12 38.8 °F 30.6 °F 29.9 in SSE 15 mph 15 mph 72% 0 in 0.0 W/m2 CLR
19:17 38.8 °F 30.6 °F 29.9 in SE 18.4 mph 18.4 mph 72% 0 in 0.0 W/m2 CLR
19:22 38.8 °F 30.6 °F 29.9 in SE 19.6 mph 19.6 mph 72% 0 in 0.0 W/m2 CLR
19:27 39 °F 30.7 °F 29.9 in SSE 20.7 mph 20.7 mph 72% 0 in 0.0 W/m2 CLR
19:37 39 °F 30.7 °F 29.9 in SSE 18.4 mph 18.4 mph 72% 0 in 0.0 W/m2 CLR
19:42 39 °F 30.7 °F 29.8 in SE 19.6 mph 19.6 mph 72% 0 in 0.0 W/m2 CLR
19:47 39.2 °F 30.6 °F 29.8 in SE 20 mph 20 mph 71% 0 in 0.0 W/m2 CLR
19:52 39.2 °F 30.9 °F 29.8 in SE 20 mph 20 mph 72% 0 in 0.0 W/m2 CLR
19:57 39 °F 30.7 °F 29.8 in SE 19.6 mph 19.6 mph 72% 0 in 0.0 W/m2 CLR
20:02 39.2 °F 30.9 °F 29.8 in SE 23 mph 23 mph 72% 0 in 0.0 W/m2 CLR
20:07 39.2 °F 30.6 °F 29.8 in SE 20.7 mph 20.7 mph 71% 0 in 0.0 W/m2 CLR
20:12 39.2 °F 30.6 °F 29.8 in SSE 23 mph 23 mph 71% 0 in 0.0 W/m2 CLR
20:13 39.2 °F 30.6 °F 29.8 in SE 23 mph 23 mph 71% 0 in 0.0 W/m2 CLR
20:18 39 °F 30.7 °F 29.8 in SE 18.4 mph 18.4 mph 72% 0 in 0.0 W/m2 CLR
20:23 39.2 °F 30.6 °F 29.8 in SE 21 mph 21 mph 71% 0 in 0.0 W/m2 CLR
20:28 39.2 °F 30.6 °F 29.8 in SE 20.7 mph 20.7 mph 71% 0 in 0.0 W/m2 CLR
20:33 39 °F 30.6 °F 29.8 in SE 19 mph 19 mph 71% 0 in 0.0 W/m2 CLR
20:38 39 °F 30.6 °F 29.8 in SSE 17.3 mph 17.3 mph 71% 0 in 0.0 W/m2 CLR
20:43 38.8 °F 30.4 °F 29.8 in SSE 17.3 mph 17.3 mph 71% 0 in 0.0 W/m2 CLR
20:48 38.8 °F 30.6 °F 29.8 in SSE 20 mph 20 mph 72% 0 in 0.0 W/m2 CLR
20:53 38.8 °F 30.2 °F 29.8 in SE 19.6 mph 19.6 mph 71% 0 in 0.0 W/m2 CLR
20:58 38.8 °F 29.8 °F 29.8 in SE 20.7 mph 20.7 mph 70% 0 in 0.0 W/m2 CLR
21:03 38.8 °F 29.8 °F 29.8 in SSE 24.2 mph 24.2 mph 70% 0 in 0.0 W/m2 CLR
21:08 38.8 °F 29.8 °F 29.8 in SE 19.6 mph 19.6 mph 70% 0 in 0.0 W/m2 CLR
21:13 38.8 °F 29.8 °F 29.8 in ESE 19.6 mph 19.6 mph 70% 0 in 0.0 W/m2 CLR
21:18 38.8 °F 29.8 °F 29.8 in SSE 18.4 mph 18.4 mph 70% 0 in 0.0 W/m2 CLR
21:23 38.8 °F 29.8 °F 29.8 in SSE 19.6 mph 19.6 mph 70% 0 in 0.0 W/m2 CLR
21:28 38.7 °F 29.8 °F 29.8 in SSE 21.9 mph 21.9 mph 70% 0 in 0.0 W/m2 CLR
21:33 38.7 °F 30 °F 29.8 in SSE 19.6 mph 19.6 mph 71% 0 in 0.0 W/m2 CLR
21:34 38.7 °F 30 °F 29.8 in SE 17.3 mph 17.3 mph 71% 0 in 0.0 W/m2 CLR
21:39 38.7 °F 30 °F 29.8 in SSE 18 mph 18 mph 71% 0 in 0.0 W/m2 CLR
21:44 38.7 °F 29.8 °F 29.8 in ESE 24.2 mph 24.2 mph 70% 0 in 0.0 W/m2 CLR
21:49 38.7 °F 30 °F 29.8 in SE 21.9 mph 21.9 mph 71% 0 in 0.0 W/m2 CLR
21:54 38.7 °F 30 °F 29.8 in SE 21.9 mph 21.9 mph 71% 0 in 0.0 W/m2 CLR
22:00 38.7 °F 30 °F 29.8 in SSE 20.7 mph 20.7 mph 71% 0 in 0.0 W/m2 CLR
22:05 38.7 °F 30 °F 29.8 in SSE 24.2 mph 24.2 mph 71% 0 in 0.0 W/m2 CLR
22:10 38.7 °F 29.8 °F 29.8 in SE 21.9 mph 21.9 mph 70% 0 in 0.0 W/m2 CLR
22:14 38.7 °F 30 °F 29.8 in SE 21.9 mph 21.9 mph 71% 0 in 0.0 W/m2 CLR
22:19 38.8 °F 29.8 °F 29.8 in SSE 23 mph 23 mph 70% 0 in 0.0 W/m2 CLR
22:24 38.8 °F 29.8 °F 29.8 in SE 19.6 mph 19.6 mph 70% 0 in 0.0 W/m2 CLR
22:29 38.8 °F 30.2 °F 29.8 in SE 23 mph 23 mph 71% 0 in 0.0 W/m2 CLR
22:34 38.8 °F 29.8 °F 29.8 in SE 21.9 mph 21.9 mph 70% 0 in 0.0 W/m2 CLR
22:39 38.8 °F 29.8 °F 29.8 in SE 24.2 mph 24.2 mph 70% 0 in 0.0 W/m2 CLR
22:44 38.8 °F 29.8 °F 29.8 in SE 23 mph 23 mph 70% 0 in 0.0 W/m2 CLR
22:49 38.8 °F 30.2 °F 29.8 in SE 20 mph 20 mph 71% 0 in 0.0 W/m2 CLR
22:54 38.8 °F 30.2 °F 29.8 in SSE 19.6 mph 19.6 mph 71% 0 in 0.0 W/m2 CLR
22:59 38.8 °F 30.2 °F 29.8 in SE 21.9 mph 21.9 mph 71% 0 in 0.0 W/m2 CLR
23:04 38.7 °F 30 °F 29.8 in SSE 20.7 mph 20.7 mph 71% 0 in 0.0 W/m2 CLR
23:10 38.7 °F 30 °F 29.8 in SE 21.9 mph 21.9 mph 71% 0 in 0.0 W/m2 CLR
23:14 38.7 °F 30 °F 29.8 in SE 20.7 mph 20.7 mph 71% 0 in 0.0 W/m2 CLR
23:19 38.7 °F 30 °F 29.8 in SSE 19.6 mph 19.6 mph 71% 0 in 0.0 W/m2 CLR
23:24 38.7 °F 30 °F 29.8 in SE 17.3 mph 17.3 mph 71% 0 in 0.0 W/m2 CLR
23:29 38.7 °F 30 °F 29.8 in SE 21 mph 21 mph 71% 0 in 0.0 W/m2 CLR
23:34 38.8 °F 29.8 °F 29.8 in SE 20.7 mph 20.7 mph 70% 0 in 0.0 W/m2 CLR
23:39 38.7 °F 30 °F 29.8 in SE 21 mph 21 mph 71% 0 in 0.0 W/m2 CLR
23:44 38.7 °F 30 °F 29.8 in SE 19.6 mph 19.6 mph 71% 0 in 0.0 W/m2 CLR
23:49 38.7 °F 30 °F 29.8 in SE 21.9 mph 21.9 mph 71% 0 in 0.0 W/m2 CLR
23:54 38.7 °F 29.8 °F 29.8 in SSE 19.6 mph 19.6 mph 70% 0 in 0.0 W/m2 CLR
23:59 38.7 °F 29.8 °F 29.8 in SE 18.4 mph 18.4 mph 70% 0 in 0.0 W/m2 CLR
Juneau County Weather